Time;durP1;ratioP1;P1;durP2;ratioP2;P2;SDS_P1;SDS_P2;PMS_P1;PMS_P2;Temp;Humidity;BMP_temperature;BMP_pressure;BME280_temperature;BME280_humidity;BME280_pressure;Samples;Min_cycle;Max_cycle;Signal;HPM_P1;HPM_P2
2022/12/08 00:00:27;;;;;;;5.60;4.27;;;;;;;;;;5033124;28;20221;-37
2022/12/08 00:03:03;;;;;;;6.57;4.90;;;;;;;;;;5021827;28;20271;-34
2022/12/08 00:11:32;;;;;;;7.67;5.00;;;;;;;;;;5025155;28;20638;-29
2022/12/08 00:14:11;;;;;;;5.77;3.80;;;;;;;;;;5044409;28;20194;-33
2022/12/08 00:16:51;;;;;;;7.20;4.83;;;;;;;;;;5046907;28;20225;-36
2022/12/08 00:19:34;;;;;;;6.60;4.77;;;;;;;;;;5043732;28;20209;-31
2022/12/08 00:22:13;;;;;;;6.97;4.23;;;;;;;;;;5043250;28;20226;-31
2022/12/08 00:24:49;;;;;;;7.97;5.30;;;;;;;;;;5038411;28;20227;-31
2022/12/08 00:30:24;;;;;;;6.17;4.37;;;;;;;;;;5019806;28;20282;-32
2022/12/08 00:33:22;;;;;;;5.93;4.43;;;;;;;;;;5033761;28;20206;-30
2022/12/08 00:36:12;;;;;;;7.27;4.80;;;;;;;;;;5033024;28;20723;-29
2022/12/08 00:38:51;;;;;;;5.50;4.13;;;;;;;;;;5038808;28;20210;-29
2022/12/08 00:44:29;;;;;;;4.70;3.87;;;;;;;;;;5044023;28;20225;-32
2022/12/08 00:47:10;;;;;;;8.47;4.67;;;;;;;;;;5034586;28;20329;-31
2022/12/08 00:50:04;;;;;;;8.17;4.97;;;;;;;;;;5032556;28;20207;-40
2022/12/08 00:56:22;;;;;;;6.50;4.27;;;;;;;;;;5043114;28;20207;-35
2022/12/08 00:59:05;;;;;;;6.27;4.33;;;;;;;;;;5030959;28;20202;-33
2022/12/08 01:02:02;;;;;;;8.67;4.03;;;;;;;;;;5053947;28;20222;-35
2022/12/08 01:04:48;;;;;;;5.57;3.87;;;;;;;;;;5052441;28;20241;-33
2022/12/08 01:07:36;;;;;;;5.07;4.33;;;;;;;;;;5027432;28;20229;-34
2022/12/08 01:10:30;;;;;;;6.57;4.17;;;;;;;;;;5051283;28;20305;-36
2022/12/08 01:13:18;;;;;;;6.03;4.87;;;;;;;;;;5020538;28;20209;-29
2022/12/08 01:16:11;;;;;;;7.73;4.60;;;;;;;;;;5025727;28;20203;-36
2022/12/08 01:19:13;;;;;;;7.97;5.27;;;;;;;;;;5032399;28;20202;-34
2022/12/08 01:22:02;;;;;;;5.00;4.00;;;;;;;;;;5021832;28;20320;-36
2022/12/08 01:24:53;;;;;;;6.03;4.57;;;;;;;;;;5054214;28;20221;-29
2022/12/08 01:30:51;;;;;;;6.57;4.53;;;;;;;;;;5036250;28;20253;-37
2022/12/08 01:36:47;;;;;;;7.33;4.83;;;;;;;;;;5034285;28;20340;-32
2022/12/08 01:39:42;;;;;;;6.07;4.73;;;;;;;;;;5039402;28;20206;-32
2022/12/08 01:42:33;;;;;;;7.23;4.60;;;;;;;;;;5061163;22;20719;-32
2022/12/08 01:45:44;;;;;;;5.27;4.73;;;;;;;;;;5040459;28;20232;-30
2022/12/08 01:52:08;;;;;;;5.27;4.23;;;;;;;;;;5030710;28;20241;-34
2022/12/08 01:55:01;;;;;;;7.37;4.37;;;;;;;;;;5052864;28;20210;-36
2022/12/08 01:57:59;;;;;;;5.57;4.13;;;;;;;;;;5042660;28;20667;-36
2022/12/08 02:00:48;;;;;;;4.70;3.93;;;;;;;;;;5043337;23;20274;-33
2022/12/08 02:08:21;;;;;;;6.40;4.50;;;;;;;;;;5019024;28;20294;-28
2022/12/08 02:10:49;;;;;;;5.50;4.50;;;;;;;;;;5023215;28;20226;-25
2022/12/08 02:13:18;;;;;;;5.83;4.63;;;;;;;;;;5016192;28;20211;-28
2022/12/08 02:15:49;;;;;;;5.80;4.77;;;;;;;;;;5029269;28;20209;-26
2022/12/08 02:18:24;;;;;;;5.10;4.30;;;;;;;;;;5029731;28;20676;-27
2022/12/08 02:20:55;;;;;;;5.80;4.93;;;;;;;;;;5021461;28;20221;-29
2022/12/08 02:23:29;;;;;;;4.63;4.13;;;;;;;;;;5015876;28;20227;-25
2022/12/08 02:26:07;;;;;;;7.63;4.57;;;;;;;;;;5021567;28;20211;-26
2022/12/08 02:28:52;;;;;;;7.20;4.87;;;;;;;;;;5025124;28;20301;-28
2022/12/08 02:31:24;;;;;;;6.93;5.37;;;;;;;;;;5016745;28;20600;-27
2022/12/08 02:34:05;;;;;;;5.30;4.40;;;;;;;;;;5019776;28;20206;-27
2022/12/08 02:36:35;;;;;;;4.43;4.00;;;;;;;;;;5017615;28;20203;-27
2022/12/08 02:39:09;;;;;;;5.57;4.33;;;;;;;;;;5009228;28;20215;-26
2022/12/08 02:41:40;;;;;;;6.67;4.23;;;;;;;;;;5009166;28;20226;-26
2022/12/08 02:44:12;;;;;;;7.90;4.60;;;;;;;;;;5016096;28;20233;-27
2022/12/08 02:46:41;;;;;;;5.87;4.50;;;;;;;;;;5019977;28;20199;-24
2022/12/08 02:49:13;;;;;;;5.30;4.33;;;;;;;;;;5026070;28;20206;-27
2022/12/08 02:51:40;;;;;;;6.37;4.17;;;;;;;;;;5021304;28;20598;-28
2022/12/08 02:54:07;;;;;;;5.97;3.73;;;;;;;;;;5023906;28;20214;-27
2022/12/08 02:56:40;;;;;;;4.70;4.20;;;;;;;;;;5024896;28;20613;-28
2022/12/08 02:59:12;;;;;;;4.80;4.10;;;;;;;;;;5020173;28;20214;-28
2022/12/08 03:01:50;;;;;;;5.77;4.70;;;;;;;;;;5032492;28;20219;-28
2022/12/08 03:04:23;;;;;;;5.20;4.70;;;;;;;;;;5024668;28;20242;-29
2022/12/08 03:06:52;;;;;;;7.10;4.63;;;;;;;;;;5019992;28;20211;-28
2022/12/08 03:09:23;;;;;;;6.03;4.37;;;;;;;;;;5029837;28;20198;-26
2022/12/08 03:11:54;;;;;;;7.80;4.63;;;;;;;;;;5027465;28;20218;-26
2022/12/08 03:14:22;;;;;;;6.47;4.27;;;;;;;;;;5029048;28;20225;-28
2022/12/08 03:16:50;;;;;;;5.47;4.70;;;;;;;;;;5026622;28;20199;-27
2022/12/08 03:19:19;;;;;;;5.83;4.27;;;;;;;;;;5029627;28;20207;-28
2022/12/08 03:21:49;;;;;;;5.90;4.30;;;;;;;;;;5023502;28;20223;-26
2022/12/08 03:24:17;;;;;;;7.70;4.20;;;;;;;;;;5013206;28;20723;-25
2022/12/08 03:26:47;;;;;;;5.63;4.27;;;;;;;;;;5016076;28;20681;-27
2022/12/08 03:29:14;;;;;;;6.37;3.83;;;;;;;;;;5026734;28;20532;-26
2022/12/08 03:31:45;;;;;;;4.80;3.63;;;;;;;;;;5033024;28;20223;-25
2022/12/08 03:34:13;;;;;;;5.67;4.17;;;;;;;;;;5025195;28;20200;-28
2022/12/08 03:36:41;;;;;;;6.33;4.00;;;;;;;;;;5019878;28;20207;-28
2022/12/08 03:39:09;;;;;;;6.07;4.10;;;;;;;;;;5012208;28;20583;-27
2022/12/08 03:41:36;;;;;;;6.40;3.80;;;;;;;;;;5017535;28;20792;-27
2022/12/08 03:44:03;;;;;;;5.87;3.93;;;;;;;;;;5022387;28;20230;-26
2022/12/08 03:46:31;;;;;;;5.00;3.80;;;;;;;;;;5022451;28;20301;-26
2022/12/08 03:48:58;;;;;;;5.37;4.03;;;;;;;;;;5032133;28;20217;-27
2022/12/08 03:51:26;;;;;;;4.83;3.77;;;;;;;;;;5027537;28;20230;-26
2022/12/08 03:53:54;;;;;;;5.33;3.47;;;;;;;;;;5018202;28;20676;-29
2022/12/08 03:56:26;;;;;;;5.50;4.10;;;;;;;;;;5021064;28;20677;-27
2022/12/08 03:58:53;;;;;;;6.17;3.83;;;;;;;;;;5027915;28;20200;-28
2022/12/08 04:01:21;;;;;;;4.90;3.30;;;;;;;;;;5029753;28;20313;-28
2022/12/08 04:03:48;;;;;;;5.23;3.70;;;;;;;;;;5028436;28;20214;-28
2022/12/08 04:06:15;;;;;;;6.20;4.03;;;;;;;;;;5031089;28;20228;-28
2022/12/08 04:08:43;;;;;;;4.63;3.70;;;;;;;;;;5023349;28;20294;-27
2022/12/08 04:11:11;;;;;;;4.97;4.03;;;;;;;;;;5020572;28;20325;-25
2022/12/08 04:13:39;;;;;;;5.37;3.53;;;;;;;;;;5020214;28;20206;-26
2022/12/08 04:16:07;;;;;;;4.40;3.80;;;;;;;;;;5011947;28;20203;-27
2022/12/08 04:18:35;;;;;;;8.90;4.93;;;;;;;;;;5009681;28;20217;-26
2022/12/08 04:21:02;;;;;;;4.73;4.07;;;;;;;;;;5023953;28;20235;-28
2022/12/08 04:23:29;;;;;;;5.17;3.83;;;;;;;;;;5027772;28;20213;-27
2022/12/08 04:25:56;;;;;;;5.97;4.30;;;;;;;;;;5027953;28;20688;-27
2022/12/08 04:28:24;;;;;;;8.57;4.50;;;;;;;;;;5032821;28;20210;-26
2022/12/08 04:30:52;;;;;;;5.63;4.13;;;;;;;;;;5016731;28;20214;-27
2022/12/08 04:33:19;;;;;;;5.03;4.20;;;;;;;;;;5028855;28;20213;-26
2022/12/08 04:35:46;;;;;;;5.90;3.93;;;;;;;;;;5024208;28;20201;-26
2022/12/08 04:38:13;;;;;;;6.50;3.97;;;;;;;;;;5024037;28;20203;-25
2022/12/08 04:40:41;;;;;;;6.53;4.40;;;;;;;;;;5010505;28;20313;-28
2022/12/08 04:43:08;;;;;;;8.00;4.27;;;;;;;;;;5019757;28;20203;-25
2022/12/08 04:45:36;;;;;;;4.17;3.77;;;;;;;;;;5011194;28;20697;-29
2022/12/08 04:48:03;;;;;;;7.33;4.17;;;;;;;;;;5011551;28;20207;-27
2022/12/08 04:50:30;;;;;;;6.03;3.53;;;;;;;;;;5023132;28;20700;-27
2022/12/08 04:52:58;;;;;;;5.77;3.70;;;;;;;;;;5011117;28;20211;-28
2022/12/08 04:55:25;;;;;;;6.00;4.00;;;;;;;;;;5023507;28;20209;-28
2022/12/08 04:57:52;;;;;;;6.30;3.70;;;;;;;;;;5023303;28;20203;-29
2022/12/08 05:00:19;;;;;;;4.47;3.57;;;;;;;;;;5019331;28;20198;-28
2022/12/08 05:02:48;;;;;;;5.57;4.03;;;;;;;;;;5030912;28;20217;-28
2022/12/08 05:05:15;;;;;;;5.70;4.10;;;;;;;;;;5023160;28;20429;-27
2022/12/08 05:07:42;;;;;;;6.17;4.30;;;;;;;;;;5019543;28;20220;-28
2022/12/08 05:10:10;;;;;;;7.97;4.37;;;;;;;;;;5012215;28;20207;-28
2022/12/08 05:12:37;;;;;;;5.60;4.23;;;;;;;;;;5016351;28;20207;-26
2022/12/08 05:15:04;;;;;;;6.97;4.73;;;;;;;;;;5014796;28;20664;-27
2022/12/08 05:17:31;;;;;;;5.70;3.70;;;;;;;;;;5012044;28;20204;-26
2022/12/08 05:20:00;;;;;;;7.97;5.33;;;;;;;;;;5011877;28;20207;-26
2022/12/08 05:22:27;;;;;;;6.53;4.33;;;;;;;;;;5013644;28;20223;-28
2022/12/08 05:24:56;;;;;;;5.33;4.20;;;;;;;;;;5021337;28;20580;-27
2022/12/08 05:27:23;;;;;;;7.10;3.83;;;;;;;;;;5019886;28;20291;-27
2022/12/08 05:29:50;;;;;;;4.97;4.43;;;;;;;;;;5019911;28;20205;-29
2022/12/08 05:32:17;;;;;;;7.13;4.30;;;;;;;;;;5024218;28;20223;-28
2022/12/08 05:34:44;;;;;;;5.03;3.87;;;;;;;;;;5027150;28;20224;-26
2022/12/08 05:37:13;;;;;;;6.10;4.03;;;;;;;;;;5027787;28;20203;-28
2022/12/08 05:39:40;;;;;;;6.13;3.83;;;;;;;;;;5011413;28;20204;-26
2022/12/08 05:42:07;;;;;;;8.00;3.93;;;;;;;;;;5015006;28;20237;-25
2022/12/08 05:44:34;;;;;;;4.90;3.80;;;;;;;;;;5023850;28;20222;-26
2022/12/08 05:47:01;;;;;;;5.77;3.60;;;;;;;;;;5034050;28;20202;-26
2022/12/08 05:50:06;;;;;;;5.50;4.00;;;;;;;;;;5024570;28;20207;-26
2022/12/08 05:52:34;;;;;;;6.47;4.27;;;;;;;;;;5032962;28;20199;-26
2022/12/08 05:55:01;;;;;;;5.67;4.03;;;;;;;;;;5033331;28;20203;-26
2022/12/08 05:57:29;;;;;;;4.37;3.80;;;;;;;;;;5016258;28;20207;-27
2022/12/08 05:59:58;;;;;;;5.27;3.93;;;;;;;;;;5015921;28;20210;-26
2022/12/08 06:02:28;;;;;;;7.97;4.63;;;;;;;;;;5028513;28;20218;-28
2022/12/08 06:04:55;;;;;;;6.57;4.27;;;;;;;;;;5017545;28;20223;-27
2022/12/08 06:07:22;;;;;;;7.30;4.43;;;;;;;;;;5021584;28;20207;-28
2022/12/08 06:09:51;;;;;;;6.67;4.97;;;;;;;;;;5026995;28;20208;-28
2022/12/08 06:12:18;;;;;;;7.23;4.47;;;;;;;;;;5017473;28;20222;-26
2022/12/08 06:14:45;;;;;;;7.83;4.07;;;;;;;;;;5026226;28;20214;-26
2022/12/08 06:17:12;;;;;;;6.70;4.30;;;;;;;;;;5009140;28;20561;-27
2022/12/08 06:19:39;;;;;;;6.73;4.03;;;;;;;;;;5009503;28;20203;-29
2022/12/08 06:22:07;;;;;;;6.40;4.77;;;;;;;;;;5019928;28;20581;-26
2022/12/08 06:24:34;;;;;;;6.47;4.53;;;;;;;;;;5013724;28;20219;-28
2022/12/08 06:27:02;;;;;;;8.30;5.07;;;;;;;;;;5017325;28;20213;-27
2022/12/08 06:29:30;;;;;;;6.53;4.33;;;;;;;;;;5024563;28;20207;-27
2022/12/08 06:31:57;;;;;;;7.37;4.50;;;;;;;;;;5034185;28;20753;-25
2022/12/08 06:34:24;;;;;;;8.53;5.17;;;;;;;;;;5033259;28;20211;-26
2022/12/08 06:36:51;;;;;;;6.20;4.40;;;;;;;;;;5016191;28;20199;-28
2022/12/08 06:39:18;;;;;;;6.20;4.57;;;;;;;;;;5016666;28;20573;-28
2022/12/08 06:44:32;;;;;;;6.70;4.53;;;;;;;;;;5030032;28;20190;-27
2022/12/08 06:46:59;;;;;;;6.47;4.27;;;;;;;;;;5013812;28;20568;-29
2022/12/08 06:49:26;;;;;;;7.23;4.43;;;;;;;;;;5020523;28;20207;-29
2022/12/08 06:51:53;;;;;;;6.03;5.10;;;;;;;;;;5022341;28;20229;-29
2022/12/08 06:54:20;;;;;;;5.67;4.20;;;;;;;;;;5033092;28;20199;-28
2022/12/08 06:56:47;;;;;;;5.83;4.30;;;;;;;;;;5032243;28;20502;-26
2022/12/08 06:59:16;;;;;;;5.43;4.23;;;;;;;;;;5034279;28;20579;-27
2022/12/08 07:01:44;;;;;;;7.00;5.10;;;;;;;;;;5033810;28;20241;-27
2022/12/08 07:04:12;;;;;;;7.63;5.37;;;;;;;;;;5031492;28;20452;-27
2022/12/08 07:06:39;;;;;;;9.53;4.73;;;;;;;;;;5022000;28;20222;-27
2022/12/08 07:09:06;;;;;;;9.47;4.43;;;;;;;;;;5012775;28;20209;-26
2022/12/08 07:11:33;;;;;;;5.13;4.30;;;;;;;;;;5011577;28;20314;-27
2022/12/08 07:14:00;;;;;;;5.57;4.23;;;;;;;;;;5023229;28;20199;-27
2022/12/08 07:16:27;;;;;;;7.83;4.77;;;;;;;;;;5015677;28;20204;-27
2022/12/08 07:18:56;;;;;;;5.67;4.47;;;;;;;;;;5014549;28;20212;-28
2022/12/08 07:21:23;;;;;;;6.73;4.67;;;;;;;;;;5022934;28;20984;-28
2022/12/08 07:23:51;;;;;;;6.40;4.90;;;;;;;;;;5022126;28;20199;-27
2022/12/08 07:26:18;;;;;;;8.10;4.70;;;;;;;;;;5015498;28;20223;-28
2022/12/08 07:28:45;;;;;;;8.50;5.03;;;;;;;;;;5032726;28;20207;-26
2022/12/08 07:31:17;;;;;;;9.50;4.90;;;;;;;;;;5035122;28;20223;-26
2022/12/08 07:33:44;;;;;;;9.50;5.20;;;;;;;;;;5034776;28;20202;-26
2022/12/08 07:36:13;;;;;;;7.03;5.03;;;;;;;;;;5021535;28;20672;-24
2022/12/08 07:38:40;;;;;;;6.33;4.43;;;;;;;;;;5013567;28;20209;-27
2022/12/08 07:41:12;;;;;;;7.03;4.77;;;;;;;;;;5014694;28;20758;-25
2022/12/08 07:43:39;;;;;;;9.53;5.30;;;;;;;;;;5019175;28;20204;-25
2022/12/08 07:46:06;;;;;;;6.00;4.60;;;;;;;;;;5025984;28;20272;-25
2022/12/08 07:48:33;;;;;;;7.17;5.33;;;;;;;;;;5033155;28;20213;-28
2022/12/08 07:51:01;;;;;;;6.63;4.63;;;;;;;;;;5029232;28;20718;-26
2022/12/08 07:53:30;;;;;;;6.97;4.80;;;;;;;;;;5026287;28;20207;-26
2022/12/08 07:55:57;;;;;;;6.33;5.00;;;;;;;;;;5019128;28;20203;-26
2022/12/08 07:58:24;;;;;;;5.93;4.70;;;;;;;;;;5025743;28;20564;-26
2022/12/08 08:00:51;;;;;;;6.83;4.70;;;;;;;;;;5034486;28;20680;-25
2022/12/08 08:08:14;;;;;;;7.57;5.00;;;;;;;;;;5022465;28;20214;-34
2022/12/08 08:10:42;;;;;;;8.77;5.40;;;;;;;;;;5025951;28;20219;-35
2022/12/08 08:13:09;;;;;;;7.53;5.00;;;;;;;;;;5019886;28;20211;-34
2022/12/08 08:15:37;;;;;;;8.43;5.73;;;;;;;;;;5020097;28;20195;-33
2022/12/08 08:18:04;;;;;;;10.80;6.23;;;;;;;;;;5033977;28;20221;-34
2022/12/08 08:20:31;;;;;;;8.00;5.20;;;;;;;;;;5024950;28;20349;-34
2022/12/08 08:22:58;;;;;;;7.30;5.17;;;;;;;;;;5023715;28;20212;-31
2022/12/08 08:25:25;;;;;;;8.27;5.93;;;;;;;;;;5021186;28;20253;-39
2022/12/08 08:27:54;;;;;;;9.40;6.27;;;;;;;;;;5027650;28;20206;-36
2022/12/08 08:30:21;;;;;;;8.33;5.73;;;;;;;;;;5018164;28;20208;-38
2022/12/08 08:32:49;;;;;;;8.80;6.20;;;;;;;;;;5028812;28;20241;-42
2022/12/08 08:35:16;;;;;;;10.57;6.30;;;;;;;;;;5012159;28;20204;-42
2022/12/08 08:37:43;;;;;;;9.87;5.67;;;;;;;;;;5031236;28;20198;-37
2022/12/08 08:40:11;;;;;;;9.33;5.93;;;;;;;;;;5027626;28;20203;-37
2022/12/08 08:42:38;;;;;;;9.57;6.20;;;;;;;;;;5028984;28;20286;-40
2022/12/08 08:45:07;;;;;;;10.20;5.93;;;;;;;;;;5016060;28;20203;-36
2022/12/08 08:47:34;;;;;;;8.77;6.17;;;;;;;;;;5030395;28;20206;-38
2022/12/08 08:50:01;;;;;;;10.10;6.93;;;;;;;;;;5027312;28;20209;-34
2022/12/08 08:52:29;;;;;;;9.40;6.57;;;;;;;;;;5020772;28;20215;-33
2022/12/08 08:54:56;;;;;;;13.90;7.83;;;;;;;;;;5024647;28;20195;-33
2022/12/08 08:57:23;;;;;;;7.03;5.60;;;;;;;;;;5019079;28;20203;-34
2022/12/08 08:59:50;;;;;;;10.53;6.70;;;;;;;;;;5030290;28;20199;-34
2022/12/08 09:02:19;;;;;;;9.80;6.93;;;;;;;;;;5029703;28;20246;-38
2022/12/08 09:04:47;;;;;;;9.43;6.87;;;;;;;;;;5026366;28;20206;-32
2022/12/08 09:07:14;;;;;;;10.17;7.00;;;;;;;;;;5010972;28;20230;-37
2022/12/08 09:09:42;;;;;;;10.07;7.53;;;;;;;;;;5019340;28;20200;-35
2022/12/08 09:12:13;;;;;;;10.90;7.63;;;;;;;;;;5013769;28;20235;-40
2022/12/08 09:14:40;;;;;;;10.43;8.00;;;;;;;;;;5030373;28;20199;-36
2022/12/08 09:17:08;;;;;;;13.97;8.60;;;;;;;;;;5031260;28;20237;-36
2022/12/08 09:19:37;;;;;;;13.40;8.53;;;;;;;;;;5023899;28;20222;-38
2022/12/08 09:22:04;;;;;;;8.90;7.10;;;;;;;;;;5017175;28;20226;-33
2022/12/08 09:24:31;;;;;;;11.87;6.63;;;;;;;;;;5020728;28;20204;-31
2022/12/08 09:26:58;;;;;;;11.57;7.20;;;;;;;;;;5022435;28;20309;-38
2022/12/08 09:29:25;;;;;;;12.37;7.93;;;;;;;;;;5027461;28;20206;-32
2022/12/08 09:31:53;;;;;;;13.20;7.97;;;;;;;;;;5031160;28;20226;-32
2022/12/08 09:34:20;;;;;;;10.53;7.50;;;;;;;;;;5031402;28;20211;-38
2022/12/08 09:36:49;;;;;;;9.60;7.20;;;;;;;;;;5016828;28;20206;-33
2022/12/08 09:39:16;;;;;;;10.03;6.23;;;;;;;;;;5012835;28;20218;-35
2022/12/08 09:41:45;;;;;;;9.53;7.07;;;;;;;;;;5021033;28;20256;-36
2022/12/08 09:44:27;;;;;;;10.60;7.53;;;;;;;;;;5021408;28;20214;-41
2022/12/08 09:46:56;;;;;;;10.43;7.30;;;;;;;;;;5030476;28;20232;-37
2022/12/08 09:49:24;;;;;;;11.47;7.20;;;;;;;;;;5030942;28;20207;-35
2022/12/08 09:51:53;;;;;;;9.97;7.50;;;;;;;;;;5014805;28;20222;-33
2022/12/08 09:54:22;;;;;;;11.53;7.20;;;;;;;;;;5026537;28;20228;-35
2022/12/08 09:56:52;;;;;;;10.83;7.13;;;;;;;;;;5017083;28;20241;-35
2022/12/08 09:59:23;;;;;;;8.63;6.40;;;;;;;;;;5027344;28;20210;-39
2022/12/08 10:01:51;;;;;;;9.73;7.00;;;;;;;;;;5030307;28;20233;-33
2022/12/08 10:04:21;;;;;;;13.43;7.03;;;;;;;;;;5030567;28;20703;-36
2022/12/08 10:06:50;;;;;;;8.83;6.70;;;;;;;;;;5012434;28;20219;-32
2022/12/08 10:09:26;;;;;;;9.13;6.57;;;;;;;;;;5021089;28;20202;-36
2022/12/08 10:11:56;;;;;;;9.83;6.47;;;;;;;;;;5018325;28;20236;-35
2022/12/08 10:14:28;;;;;;;8.13;6.20;;;;;;;;;;5019515;28;20202;-41
2022/12/08 10:16:59;;;;;;;9.13;6.37;;;;;;;;;;5017053;28;20199;-38
2022/12/08 10:19:27;;;;;;;8.73;5.83;;;;;;;;;;5012223;28;20207;-39
2022/12/08 10:21:57;;;;;;;9.53;6.30;;;;;;;;;;5020569;28;20226;-34
2022/12/08 10:24:27;;;;;;;10.67;6.83;;;;;;;;;;5012969;28;20209;-40
2022/12/08 10:26:56;;;;;;;9.23;6.17;;;;;;;;;;5015215;28;20215;-34
2022/12/08 10:29:24;;;;;;;8.13;6.80;;;;;;;;;;5028128;28;20210;-37
2022/12/08 10:31:51;;;;;;;9.13;6.33;;;;;;;;;;5029847;28;20218;-37
2022/12/08 10:34:21;;;;;;;8.37;5.93;;;;;;;;;;5030506;28;20207;-34
2022/12/08 10:36:50;;;;;;;9.33;6.73;;;;;;;;;;5020674;28;20282;-35
2022/12/08 10:39:31;;;;;;;9.93;6.50;;;;;;;;;;5012981;28;20234;-42
2022/12/08 10:42:01;;;;;;;8.30;5.27;;;;;;;;;;5014875;28;20223;-33
2022/12/08 10:44:29;;;;;;;7.30;5.53;;;;;;;;;;5018369;28;20215;-33
2022/12/08 10:46:56;;;;;;;9.57;6.13;;;;;;;;;;5024546;28;20218;-33
2022/12/08 10:49:26;;;;;;;8.13;5.60;;;;;;;;;;5030328;28;20210;-31
2022/12/08 10:51:53;;;;;;;7.87;5.70;;;;;;;;;;5020198;28;20227;-33
2022/12/08 10:54:27;;;;;;;10.73;6.33;;;;;;;;;;5027365;28;20202;-35
2022/12/08 10:56:56;;;;;;;6.87;4.60;;;;;;;;;;5028214;28;20194;-34
2022/12/08 10:59:24;;;;;;;7.80;6.00;;;;;;;;;;5021075;28;20302;-32
2022/12/08 11:01:54;;;;;;;7.40;4.73;;;;;;;;;;5031796;28;20242;-35
2022/12/08 11:04:23;;;;;;;6.13;5.00;;;;;;;;;;5031043;28;20206;-36
2022/12/08 11:06:51;;;;;;;6.20;5.00;;;;;;;;;;5019896;28;20233;-30
2022/12/08 11:09:45;;;;;;;6.67;4.63;;;;;;;;;;5031688;28;20207;-33
2022/12/08 11:12:15;;;;;;;8.30;5.00;;;;;;;;;;5013825;28;20227;-37
2022/12/08 11:14:50;;;;;;;7.23;5.07;;;;;;;;;;5019575;28;20243;-35
2022/12/08 11:17:18;;;;;;;6.53;4.60;;;;;;;;;;5013818;28;20203;-38
2022/12/08 11:19:46;;;;;;;9.63;5.70;;;;;;;;;;5011510;28;20302;-36
2022/12/08 11:22:24;;;;;;;6.23;4.77;;;;;;;;;;5021213;28;20227;-37
2022/12/08 11:24:58;;;;;;;8.13;5.40;;;;;;;;;;5017963;28;20199;-37
2022/12/08 11:27:26;;;;;;;7.83;5.60;;;;;;;;;;5020572;28;20290;-32
2022/12/08 11:29:53;;;;;;;6.40;4.33;;;;;;;;;;5024184;28;20310;-35
2022/12/08 11:32:21;;;;;;;6.10;4.70;;;;;;;;;;5032568;28;20227;-42
2022/12/08 11:34:51;;;;;;;6.67;4.80;;;;;;;;;;5028424;28;20314;-33
2022/12/08 11:37:21;;;;;;;6.83;5.00;;;;;;;;;;5021358;28;20207;-36
2022/12/08 11:39:49;;;;;;;6.43;4.57;;;;;;;;;;5013457;28;20203;-32
2022/12/08 11:42:19;;;;;;;6.83;4.80;;;;;;;;;;5024043;28;20280;-32
2022/12/08 11:44:51;;;;;;;5.83;3.67;;;;;;;;;;5023897;28;20194;-40
2022/12/08 11:47:20;;;;;;;6.80;4.83;;;;;;;;;;5032671;28;20233;-33
2022/12/08 11:49:47;;;;;;;6.60;4.90;;;;;;;;;;5024008;28;20294;-37
2022/12/08 11:52:21;;;;;;;7.43;5.13;;;;;;;;;;5020265;28;20237;-32
2022/12/08 11:54:51;;;;;;;5.97;4.27;;;;;;;;;;5013321;28;20203;-35
2022/12/08 11:57:19;;;;;;;8.30;4.93;;;;;;;;;;5023450;28;20199;-38
2022/12/08 11:59:49;;;;;;;8.23;4.20;;;;;;;;;;5023346;28;20203;-37
2022/12/08 12:02:17;;;;;;;4.97;4.00;;;;;;;;;;5032545;28;20226;-34
2022/12/08 12:04:46;;;;;;;5.67;4.23;;;;;;;;;;5016070;28;20525;-37
2022/12/08 12:07:23;;;;;;;5.47;3.77;;;;;;;;;;5028407;28;20222;-34
2022/12/08 12:10:05;;;;;;;7.00;4.20;;;;;;;;;;5013296;28;20207;-34
2022/12/08 12:12:39;;;;;;;6.27;4.17;;;;;;;;;;5024454;28;20213;-27
2022/12/08 12:15:27;;;;;;;4.77;3.10;;;;;;;;;;5018850;28;20203;-32
2022/12/08 12:17:57;;;;;;;6.23;3.53;;;;;;;;;;5031873;28;20285;-42
2022/12/08 12:20:27;;;;;;;4.80;3.40;;;;;;;;;;5026227;28;20222;-35
2022/12/08 12:23:04;;;;;;;5.70;3.90;;;;;;;;;;5031146;28;20275;-32
2022/12/08 12:25:32;;;;;;;5.27;3.57;;;;;;;;;;5018939;28;20206;-38
2022/12/08 12:28:02;;;;;;;5.03;4.03;;;;;;;;;;5028535;28;20218;-39
2022/12/08 12:30:49;;;;;;;5.00;3.13;;;;;;;;;;5020896;28;20234;-37
2022/12/08 12:33:18;;;;;;;3.93;3.03;;;;;;;;;;5012544;28;20237;-36
2022/12/08 12:35:47;;;;;;;3.97;3.00;;;;;;;;;;5015589;28;20296;-36
2022/12/08 12:41:02;;;;;;;4.03;3.23;;;;;;;;;;5014624;28;20230;-34
2022/12/08 12:43:30;;;;;;;4.07;3.10;;;;;;;;;;5029653;28;20207;-36
2022/12/08 12:46:12;;;;;;;3.67;2.70;;;;;;;;;;5015856;28;20217;-35
2022/12/08 12:48:41;;;;;;;4.67;3.57;;;;;;;;;;5018145;28;20220;-37
2022/12/08 12:51:23;;;;;;;3.53;3.23;;;;;;;;;;5017849;28;20230;-36
2022/12/08 12:53:51;;;;;;;4.97;3.50;;;;;;;;;;5015982;28;20211;-36
2022/12/08 12:56:39;;;;;;;5.00;3.00;;;;;;;;;;5020130;28;20218;-38
2022/12/08 12:59:21;;;;;;;3.60;3.00;;;;;;;;;;5025571;28;20213;-40
2022/12/08 13:01:51;;;;;;;3.50;2.80;;;;;;;;;;5010978;28;20237;-37
2022/12/08 13:04:20;;;;;;;2.77;2.50;;;;;;;;;;5013020;28;20223;-40
2022/12/08 13:06:48;;;;;;;5.47;2.87;;;;;;;;;;5015799;28;20314;-34
2022/12/08 13:09:24;;;;;;;4.57;3.00;;;;;;;;;;5014880;28;20293;-36
2022/12/08 13:11:52;;;;;;;5.07;2.90;;;;;;;;;;5013560;28;20235;-30
2022/12/08 13:14:30;;;;;;;5.00;3.00;;;;;;;;;;5024014;28;20207;-37
2022/12/08 13:16:59;;;;;;;3.43;3.00;;;;;;;;;;5032465;28;20664;-37
2022/12/08 13:19:30;;;;;;;4.10;3.03;;;;;;;;;;5030383;28;20209;-35
2022/12/08 13:21:58;;;;;;;4.43;2.70;;;;;;;;;;5018829;28;20230;-36
2022/12/08 13:24:31;;;;;;;2.93;2.30;;;;;;;;;;5022104;28;20203;-38
2022/12/08 13:27:17;;;;;;;2.60;2.00;;;;;;;;;;5026005;28;20220;-37
2022/12/08 13:29:44;;;;;;;2.23;1.80;;;;;;;;;;5018160;28;20209;-37
2022/12/08 13:32:26;;;;;;;2.67;1.87;;;;;;;;;;5011002;28;20261;-33
2022/12/08 13:34:56;;;;;;;2.93;2.17;;;;;;;;;;5011052;28;20199;-31
2022/12/08 13:37:26;;;;;;;5.00;2.30;;;;;;;;;;5016812;28;20209;-40
2022/12/08 13:39:55;;;;;;;2.43;1.97;;;;;;;;;;5029735;28;20202;-39
2022/12/08 13:42:25;;;;;;;2.33;2.10;;;;;;;;;;5016831;28;20222;-38
2022/12/08 13:44:56;;;;;;;2.67;2.10;;;;;;;;;;5018846;28;20195;-34
2022/12/08 13:47:25;;;;;;;3.23;2.33;;;;;;;;;;5019483;28;20330;-32
2022/12/08 13:49:55;;;;;;;3.00;2.23;;;;;;;;;;5020915;28;20213;-31
2022/12/08 13:52:31;;;;;;;3.63;2.33;;;;;;;;;;5016014;28;20227;-28
2022/12/08 13:54:58;;;;;;;3.23;2.80;;;;;;;;;;5012378;28;20209;-37
2022/12/08 13:57:28;;;;;;;4.47;3.30;;;;;;;;;;5019958;28;20211;-41
2022/12/08 14:00:00;;;;;;;2.43;2.23;;;;;;;;;;5013089;28;20338;-42
2022/12/08 14:02:28;;;;;;;3.60;2.83;;;;;;;;;;5024957;28;20241;-34
2022/12/08 14:04:56;;;;;;;3.73;2.80;;;;;;;;;;5030026;28;20293;-35
2022/12/08 14:07:25;;;;;;;5.13;2.60;;;;;;;;;;5022225;28;20218;-39
2022/12/08 14:09:52;;;;;;;3.53;2.10;;;;;;;;;;5022571;28;20286;-33
2022/12/08 14:12:21;;;;;;;2.83;2.20;;;;;;;;;;5013397;28;20602;-39
2022/12/08 14:14:49;;;;;;;2.90;2.27;;;;;;;;;;5009999;28;20211;-37
2022/12/08 14:17:17;;;;;;;4.83;2.27;;;;;;;;;;5010528;28;20202;-39
2022/12/08 14:19:45;;;;;;;2.87;2.30;;;;;;;;;;5016172;28;20214;-37
2022/12/08 14:22:14;;;;;;;2.60;2.07;;;;;;;;;;5021304;28;20317;-41
2022/12/08 14:24:47;;;;;;;3.97;2.37;;;;;;;;;;5011345;28;20203;-35
2022/12/08 14:27:16;;;;;;;4.40;2.67;;;;;;;;;;5021195;28;20219;-34
2022/12/08 14:29:43;;;;;;;4.30;2.57;;;;;;;;;;5029645;28;20207;-36
2022/12/08 14:32:21;;;;;;;2.53;2.20;;;;;;;;;;5030509;28;20490;-33
2022/12/08 14:34:52;;;;;;;2.83;2.30;;;;;;;;;;5014597;28;20203;-39
2022/12/08 14:37:19;;;;;;;4.73;2.77;;;;;;;;;;5010189;28;20206;-37
2022/12/08 14:39:48;;;;;;;4.57;2.93;;;;;;;;;;5028759;28;20206;-32
2022/12/08 14:42:21;;;;;;;2.80;2.50;;;;;;;;;;5009450;28;20227;-40
2022/12/08 14:44:48;;;;;;;3.57;2.33;;;;;;;;;;5009745;28;20291;-36
2022/12/08 14:47:19;;;;;;;5.10;2.80;;;;;;;;;;5010094;28;20295;-35
2022/12/08 14:52:24;;;;;;;3.83;2.70;;;;;;;;;;5037508;22;20234;-25
2022/12/08 14:54:55;;;;;;;4.60;2.90;;;;;;;;;;5049370;28;20639;-26
2022/12/08 14:57:26;;;;;;;3.60;2.40;;;;;;;;;;5053882;28;20226;-25
2022/12/08 14:59:58;;;;;;;2.73;2.40;;;;;;;;;;5051898;28;20210;-25
2022/12/08 15:02:28;;;;;;;3.50;2.77;;;;;;;;;;5065764;28;20312;-27
2022/12/08 15:04:58;;;;;;;3.13;2.40;;;;;;;;;;5043582;28;20707;-23
2022/12/08 15:07:29;;;;;;;3.40;2.63;;;;;;;;;;5047787;28;20226;-26
2022/12/08 15:10:10;;;;;;;4.00;2.60;;;;;;;;;;5064133;28;20268;-26
2022/12/08 15:12:38;;;;;;;3.50;2.60;;;;;;;;;;5047491;28;20203;-24
2022/12/08 15:15:16;;;;;;;3.20;2.70;;;;;;;;;;5032813;28;20210;-26
2022/12/08 15:17:45;;;;;;;3.53;3.07;;;;;;;;;;5040743;28;20225;-27
2022/12/08 15:20:26;;;;;;;3.23;2.60;;;;;;;;;;5151452;22;20291;-25
2022/12/08 15:22:56;;;;;;;7.50;3.07;;;;;;;;;;5052517;28;20229;-24
2022/12/08 15:25:33;;;;;;;5.60;2.70;;;;;;;;;;5045561;28;20213;-26
2022/12/08 15:28:02;;;;;;;2.83;2.40;;;;;;;;;;5033748;28;20230;-23
2022/12/08 15:30:30;;;;;;;4.90;2.83;;;;;;;;;;5034244;28;20264;-24
2022/12/08 15:33:01;;;;;;;3.03;2.70;;;;;;;;;;5035909;28;20206;-26
2022/12/08 15:35:29;;;;;;;4.10;2.63;;;;;;;;;;5040113;28;20219;-23
2022/12/08 15:37:57;;;;;;;3.10;2.23;;;;;;;;;;5042663;28;20209;-24
2022/12/08 15:40:26;;;;;;;3.33;2.67;;;;;;;;;;5035623;28;20226;-23
2022/12/08 15:42:53;;;;;;;4.27;3.03;;;;;;;;;;5045335;28;20273;-23
2022/12/08 15:45:24;;;;;;;4.90;2.60;;;;;;;;;;5034771;28;20613;-25
2022/12/08 15:47:51;;;;;;;3.10;2.20;;;;;;;;;;5034910;28;20223;-25
2022/12/08 15:52:56;;;;;;;3.20;2.37;;;;;;;;;;5119929;22;20230;-31